Decoded Metar for LFSL (BRIVE in FRANCE) (IATA:N/A) | Meteo·Mobile Aviation Weather
aviador You're here:

LFSL Decoded Metar

BRIVE in FRANCE
Report Time2018-10-18 16:00:00
UTC Time2018-10-18 16:22:37
Flight Rules vfr VFR
Wind320° at 04 kt
W.Decomp.*RWY 29: 3.5 kt HW 2.0 kt RCW
W.Rank320° ranks 1
Current wind is below 320° avg. (6.4)
Visibility9999 m
Phenomena:N/A
Clouds:N/A
Expected CloudBase > 5,200 ft AGL from Temp-Dew spread
CeilingNone
Temp23°C (ISA +10)
Dew Point10°C (44% RH)
AAT21.6°C
QNH1015 hPa
Density Alt2,280 ft
Elevation1,016 ft
Report Wrong Elevation
Raw Report
LFSL 181600Z AUTO 32004KT CAVOK 23/10 Q1015 NOSIG=

Extra information for LFSL:More info

Metar Taf Metar & Taf Last 4 Metars F.Rules Stats Wind Profile Meteogram Temp Stats Airport Information Weather charts Add Link Nearby VenuesMetar ALERT Operation Metar Decoded Social comments